Nearby METAR Reports

 

KMLI - Moline/Quad City, Illinois, USA
Distance from station: ENE 4mi, 7km
Updated: 06/03/2020 7:24am
Heavy thunderstorm, Rain, Fog, Overcast
Heavy thunderstorm, Rain, Fog, Overcast
 Wind from E
Wind: E 16 mph , 26 km/h, Gust: 20 mph , 31 km/h
Temperature: 70°F , 21°C
Dew Point: 66°F , 19°C
Humidity: 88%
Barometer: 29.89 inHg , 1012.2 hPa
Summary: Heavy thunderstorm, Rain, Fog
Clouds: Overcast
Visibility: 1/2 mile , 0.8 km
Cloud details: Mostly cloudy 1200 ft
Overcast 2900 ft
2020/06/03 12:24 KMLI 031224Z 09014G17KT 1/2SM R09/2200V5500FT +TSRA FG BKN012 OVC029 21/19 A2989 RMK AO2 LTG DSNT ALQDS TSB1158 P0094 T02060194
KDVN - Davenport/Quad C, Iowa, USA
Distance from station: N 14mi, 22km
Updated: 06/03/2020 7:34am
Overcast
Overcast
 Wind from SSE
Wind: SSE 15 mph , 24 km/h
Temperature: 70°F , 21°C
Dew Point: 64°F , 18°C
Humidity: 83%
Barometer: 29.88 inHg , 1011.9 hPa
Clouds: Overcast
Visibility: 10 miles , 16 km
Cloud details: Few Clouds 3000 ft
Few Clouds 7000 ft
Overcast 10000 ft
2020/06/03 12:34 KDVN 031234Z AUTO 16013KT 10SM FEW030 FEW070 OVC100 21/18 A2988 RMK AO2 PK WND 29032/1157 LTG DSNT ALQDS RAB1156E26 TSB1154E28 P0018 T02060178
 
KMUT - Muscatine, Iowa, USA
Distance from station: W 29mi, 47km
Updated: 06/03/2020 7:35am
Overcast
Overcast
 Wind from SSE
Wind: SSE 7 mph , 11 km/h
Temperature: 72°F , 22°C
Dew Point: 70°F , 21°C
Humidity: 94%
Barometer: 29.86 inHg , 1011.2 hPa
Clouds: Overcast
Visibility: 10 miles , 16 km
Cloud details: Overcast 3000 ft
2020/06/03 12:35 KMUT 031235Z AUTO 16006KT 10SM OVC030 22/21 A2986 RMK AO2
KCWI - Clinton Muni, Iowa, USA
Distance from station: NNE 31mi, 50km
Updated: 06/03/2020 7:35am
Light rain, Overcast
Light rain, Overcast
 Wind from SSE
Wind: SSE 20 mph , 31 km/h
Temperature: 66°F , 19°C
Dew Point: 66°F , 19°C
Humidity: 100%
Barometer: 29.80 inHg , 1009.1 hPa
Summary: Light rain
Clouds: Overcast
Visibility: 10 miles , 16 km
Cloud details: Few Clouds 2600 ft
Mostly cloudy 9500 ft
Overcast 12000 ft
2020/06/03 12:35 KCWI 031235Z AUTO 15017KT 10SM -RA FEW026 BKN095 OVC120 19/19 A2980 RMK AO2 WSHFT 1220 LTG DSNT ALQDS TSE35 PNO $
 
KGBG - Galesburg, Illinois, USA
Distance from station: SSE 35mi, 56km
Updated: 06/03/2020 7:15am
Nearby thunderstorm, Clear
Nearby thunderstorm, Clear
 Wind from SSE
Wind: SSE 7 mph , 11 km/h
Temperature: 73°F , 23°C
Dew Point: 64°F , 18°C
Humidity: 74%
Barometer: 29.89 inHg , 1012.2 hPa
Summary: Nearby Thunderstorm
Clouds: Clear
Visibility: 10 miles , 16 km
2020/06/03 12:15 KGBG 031215Z AUTO 16006KT 10SM VCTS CLR 23/18 A2989 RMK AO2 LTG DSNT N AND NW T02270178
KSFY - Savanna/Tritown, Illinois, USA
Distance from station: NNE 50mi, 80km
Updated: 06/03/2020 7:15am

 Wind from calm
Wind: Calm
Visibility: 10 miles , 16 km
2020/06/03 12:15 KSFY 031215Z AUTO 00000KT 10SM -VCTSRA SCT008 SCT060 SCT070 18/18 A2987 RMK AO2 LTG DSNT SE THRU W P0001